Time;durP1;ratioP1;P1;durP2;ratioP2;P2;SDS_P1;SDS_P2;PMS_P1;PMS_P2;Temp;Humidity;BMP_temperature;BMP_pressure;BME280_temperature;BME280_humidity;BME280_pressure;Samples;Min_cycle;Max_cycle;Signal;HPM_P1;HPM_P2
2022/11/23 00:00:17;;;;;;;;;;;;;;;7.74;100.00;99486.50;5075968;28;20333;-87
2022/11/23 00:02:42;;;;;;;;;;;;;;;7.73;100.00;99490.88;5068032;28;19932;-87
2022/11/23 00:05:08;;;;;;;;;;;;;;;7.74;100.00;99492.56;5053017;28;19917;-87
2022/11/23 00:07:33;;;;;;;;;;;;;;;7.75;100.00;99490.78;5070950;28;19924;-87
2022/11/23 00:09:58;;;;;;;;;;;;;;;7.74;100.00;99499.53;5042830;28;19928;-87
2022/11/23 00:12:23;;;;;;;;;;;;;;;7.74;100.00;99495.16;5057537;28;19951;-87
2022/11/23 00:14:49;;;;;;;;;;;;;;;7.75;100.00;99503.81;5073316;28;19917;-87
2022/11/23 00:17:14;;;;;;;;;;;;;;;7.75;100.00;99496.00;5064331;28;19924;-87
2022/11/23 00:19:39;;;;;;;;;;;;;;;7.75;100.00;99509.88;5062315;28;20019;-87
2022/11/23 00:22:06;;;;;;;;;;;;;;;7.75;100.00;99511.63;5048526;28;20006;-86
2022/11/23 00:24:31;;;;;;;;;;;;;;;7.76;100.00;99510.72;5058260;28;20196;-86
2022/11/23 00:26:56;;;;;;;;;;;;;;;7.76;100.00;99511.56;5051237;28;19932;-87
2022/11/23 00:29:21;;;;;;;;;;;;;;;7.76;100.00;99515.94;5074163;28;20282;-87
2022/11/23 00:31:47;;;;;;;;;;;;;;;7.76;100.00;99514.16;5059246;28;19925;-87
2022/11/23 00:34:12;;;;;;;;;;;;;;;7.77;100.00;99517.63;5046532;28;19924;-87
2022/11/23 00:36:37;;;;;;;;;;;;;;;7.76;100.00;99518.53;5067886;28;19924;-87
2022/11/23 00:39:02;;;;;;;;;;;;;;;7.77;100.00;99522.84;5040293;28;19929;-87
2022/11/23 00:41:28;;;;;;;;;;;;;;;7.77;100.00;99525.44;5039638;28;19920;-87
2022/11/23 00:43:53;;;;;;;;;;;;;;;7.77;100.00;99525.44;5059701;28;19924;-87
2022/11/23 00:46:25;;;;;;;;;;;;;;;7.76;100.00;99527.19;5042854;28;19956;-87
2022/11/23 00:48:51;;;;;;;;;;;;;;;7.76;100.00;99529.78;5066685;28;20109;-87
2022/11/23 00:51:18;;;;;;;;;;;;;;;7.77;100.00;99528.88;5076935;28;19939;-86
2022/11/23 00:53:44;;;;;;;;;;;;;;;7.78;100.00;99529.72;5053219;28;19921;-87
2022/11/23 00:56:10;;;;;;;;;;;;;;;7.77;100.00;99528.88;5057204;28;19935;-87
2022/11/23 00:58:37;;;;;;;;;;;;;;;7.78;100.00;99524.50;5057783;28;19923;-87
2022/11/23 01:01:10;;;;;;;;;;;;;;;7.78;100.00;99521.91;5059256;28;19956;-87
2022/11/23 01:03:36;;;;;;;;;;;;;;;7.78;100.00;99520.13;5076053;28;19927;-87
2022/11/23 01:06:02;;;;;;;;;;;;;;;7.79;100.00;99527.06;5064598;28;19938;-87
2022/11/23 01:08:28;;;;;;;;;;;;;;;7.79;100.00;99528.81;5072114;28;19954;-87
2022/11/23 01:10:57;;;;;;;;;;;;;;;7.79;100.00;99524.44;5077532;28;20172;-87
2022/11/23 01:13:22;;;;;;;;;;;;;;;7.80;100.00;99520.91;5059081;28;19913;-87
2022/11/23 01:15:48;;;;;;;;;;;;;;;7.80;100.00;99526.09;5059448;28;19944;-87
2022/11/23 01:18:13;;;;;;;;;;;;;;;7.81;100.00;99529.59;5059357;28;20127;-87
2022/11/23 01:20:39;;;;;;;;;;;;;;;7.80;100.00;99531.31;5076954;28;19931;-87
2022/11/23 01:23:04;;;;;;;;;;;;;;;7.82;100.00;99532.13;5076138;28;19927;-87
2022/11/23 01:25:29;;;;;;;;;;;;;;;7.81;100.00;99525.19;5071795;28;19917;-87
2022/11/23 01:27:55;;;;;;;;;;;;;;;7.82;100.00;99536.47;5080843;28;20243;-87
2022/11/23 01:30:20;;;;;;;;;;;;;;;7.83;100.00;99538.16;5069430;28;19924;-87
2022/11/23 01:32:45;;;;;;;;;;;;;;;7.83;100.00;99539.00;5080017;28;19940;-87
2022/11/23 01:35:11;;;;;;;;;;;;;;;7.84;100.00;99545.03;5059446;28;19925;-87
2022/11/23 01:37:36;;;;;;;;;;;;;;;7.84;100.00;99534.63;5049832;28;20392;-87
2022/11/23 01:40:01;;;;;;;;;;;;;;;7.84;100.00;99543.31;5074002;28;20327;-87
2022/11/23 01:42:46;;;;;;;;;;;;;;;7.84;100.00;99540.69;5079807;28;19951;-87
2022/11/23 01:45:31;;;;;;;;;;;;;;;7.84;100.00;99545.91;5078614;28;19928;-87
2022/11/23 01:47:56;;;;;;;;;;;;;;;7.85;100.00;99544.13;5080081;28;19981;-87
2022/11/23 01:50:22;;;;;;;;;;;;;;;7.85;100.00;99539.75;5076046;28;19924;-86
2022/11/23 01:52:47;;;;;;;;;;;;;;;7.86;100.00;99548.44;5049149;28;19932;-86
2022/11/23 01:55:13;;;;;;;;;;;;;;;7.86;100.00;99545.84;5073274;28;20217;-87
2022/11/23 01:57:41;;;;;;;;;;;;;;;7.86;100.00;99551.88;5067620;28;20324;-87
2022/11/23 02:00:07;;;;;;;;;;;;;;;7.86;100.00;99545.84;5077448;28;19931;-87
2022/11/23 02:02:33;;;;;;;;;;;;;;;7.85;100.00;99544.97;5076744;28;19921;-87
2022/11/23 02:05:00;;;;;;;;;;;;;;;7.86;100.00;99551.88;5061517;28;19916;-87
2022/11/23 02:07:27;;;;;;;;;;;;;;;7.86;100.00;99544.06;5046281;28;19924;-86
2022/11/23 02:09:53;;;;;;;;;;;;;;;7.87;100.00;99552.72;5061973;28;20236;-87
2022/11/23 02:12:18;;;;;;;;;;;;;;;7.86;100.00;99549.28;5069606;28;20273;-87
2022/11/23 02:14:44;;;;;;;;;;;;;;;7.85;100.00;99547.59;5062628;28;19913;-87
2022/11/23 02:17:10;;;;;;;;;;;;;;;7.86;100.00;99551.88;5061942;28;20219;-87
2022/11/23 02:19:46;;;;;;;;;;;;;;;7.85;100.00;99552.78;5040996;28;19912;-87
2022/11/23 02:22:17;;;;;;;;;;;;;;;7.86;100.00;99549.28;5079691;28;19951;-87
2022/11/23 02:24:47;;;;;;;;;;;;;;;7.86;100.00;99551.88;5057932;28;19920;-87
2022/11/23 02:27:13;;;;;;;;;;;;;;;7.85;100.00;99547.59;5077938;28;19967;-87
2022/11/23 02:29:38;;;;;;;;;;;;;;;7.85;100.00;99542.38;5068660;28;19912;-87
2022/11/23 02:32:04;;;;;;;;;;;;;;;7.85;100.00;99544.97;5061711;28;19924;-87
2022/11/23 02:34:29;;;;;;;;;;;;;;;7.85;100.00;99552.78;5041965;28;19920;-87
2022/11/23 02:36:56;;;;;;;;;;;;;;;7.85;100.00;99550.19;5074627;28;20015;-86
2022/11/23 02:39:26;;;;;;;;;;;;;;;7.85;100.00;99554.56;5061449;28;19930;-86
2022/11/23 02:41:52;;;;;;;;;;;;;;;7.84;100.00;99553.72;5080019;28;19976;-87
2022/11/23 02:44:18;;;;;;;;;;;;;;;7.85;100.00;99552.78;5061189;28;19966;-86
2022/11/23 02:46:43;;;;;;;;;;;;;;;7.85;100.00;99552.78;5074353;28;20231;-87
2022/11/23 02:49:08;;;;;;;;;;;;;;;7.85;100.00;99554.56;5076353;28;19920;-87
2022/11/23 02:51:34;;;;;;;;;;;;;;;7.84;100.00;99553.72;5078167;28;19924;-87
2022/11/23 02:53:59;;;;;;;;;;;;;;;7.84;100.00;99558.06;5061241;28;19913;-87
2022/11/23 02:56:24;;;;;;;;;;;;;;;7.84;100.00;99550.25;5025066;28;19920;-86
2022/11/23 02:58:50;;;;;;;;;;;;;;;7.84;100.00;99547.66;5072202;28;19924;-87
2022/11/23 03:01:15;;;;;;;;;;;;;;;7.82;100.00;99560.78;5058708;28;19966;-87
2022/11/23 03:03:40;;;;;;;;;;;;;;;7.83;100.00;99565.06;5043467;28;19925;-87
2022/11/23 03:06:05;;;;;;;;;;;;;;;7.83;100.00;99557.25;5061209;28;19921;-86
2022/11/23 03:08:31;;;;;;;;;;;;;;;7.83;100.00;99559.00;5057441;28;19952;-87
2022/11/23 03:10:56;;;;;;;;;;;;;;;7.83;100.00;99562.47;5076830;28;19940;-87
2022/11/23 03:13:21;;;;;;;;;;;;;;;7.83;100.00;99559.84;5060676;28;20332;-87
2022/11/23 03:15:47;;;;;;;;;;;;;;;7.83;100.00;99567.66;5061408;28;19920;-87
2022/11/23 03:18:12;;;;;;;;;;;;;;;7.84;100.00;99565.91;5061183;28;19991;-87
2022/11/23 03:20:37;;;;;;;;;;;;;;;7.84;100.00;99571.97;5057581;28;19916;-87
2022/11/23 03:23:02;;;;;;;;;;;;;;;7.83;100.00;99570.28;5040778;28;20212;-90
2022/11/23 03:25:28;;;;;;;;;;;;;;;7.83;100.00;99570.28;5043708;28;20251;-89
2022/11/23 03:27:53;;;;;;;;;;;;;;;7.84;100.00;99569.38;5060988;28;19912;-90
2022/11/23 03:30:18;;;;;;;;;;;;;;;7.84;100.00;99568.50;5043819;28;20165;-89
2022/11/23 03:32:43;;;;;;;;;;;;;;;7.84;100.00;99576.31;5060528;28;19916;-89
2022/11/23 03:35:09;;;;;;;;;;;;;;;7.84;100.00;99571.09;5077041;28;19920;-89
2022/11/23 03:37:34;;;;;;;;;;;;;;;7.85;100.00;99575.41;5040292;28;19913;-89
2022/11/23 03:39:59;;;;;;;;;;;;;;;7.84;100.00;99576.31;5023553;28;20051;-89
2022/11/23 03:42:24;;;;;;;;;;;;;;;7.85;100.00;99572.81;5023910;28;19920;-89
2022/11/23 03:44:50;;;;;;;;;;;;;;;7.86;100.00;99582.34;5023917;28;20361;-90
2022/11/23 03:47:15;;;;;;;;;;;;;;;7.85;100.00;99575.41;5031620;28;20243;-89
2022/11/23 03:49:40;;;;;;;;;;;;;;;7.86;100.00;99571.91;5044701;28;19925;-90
2022/11/23 03:52:06;;;;;;;;;;;;;;;7.86;100.00;99580.56;5059762;28;19924;-89
2022/11/23 03:54:31;;;;;;;;;;;;;;;7.86;100.00;99571.91;5060436;28;19921;-89
2022/11/23 03:56:56;;;;;;;;;;;;;;;7.86;100.00;99577.97;5060171;28;20211;-89
2022/11/23 03:59:21;;;;;;;;;;;;;;;7.85;100.00;99578.84;5059371;28;19916;-89
2022/11/23 04:01:47;;;;;;;;;;;;;;;7.86;100.00;99571.91;5059929;28;19916;-90
2022/11/23 04:04:12;;;;;;;;;;;;;;;7.85;100.00;99578.84;5059694;28;20134;-89
2022/11/23 04:06:37;;;;;;;;;;;;;;;7.85;100.00;99576.25;5059618;28;19912;-89
2022/11/23 04:09:03;;;;;;;;;;;;;;;7.85;100.00;99571.03;5059659;28;19916;-89
2022/11/23 04:11:28;;;;;;;;;;;;;;;7.86;100.00;99584.94;5042750;28;19996;-89
2022/11/23 04:13:53;;;;;;;;;;;;;;;7.86;100.00;99574.50;5059945;28;19921;-89
2022/11/23 04:16:18;;;;;;;;;;;;;;;7.86;100.00;99577.97;5077210;28;19912;-89
2022/11/23 04:18:45;;;;;;;;;;;;;;;7.87;100.00;99569.19;5077758;28;19952;-89
2022/11/23 04:21:10;;;;;;;;;;;;;;;7.87;100.00;99570.97;5077771;28;20181;-89
2022/11/23 04:23:35;;;;;;;;;;;;;;;7.88;100.00;99576.13;5077601;28;19919;-89
2022/11/23 04:26:04;;;;;;;;;;;;;;;7.88;100.00;99565.69;5077312;28;19919;-90
2022/11/23 04:28:29;;;;;;;;;;;;;;;7.90;100.00;99572.59;5077259;28;19971;-90
2022/11/23 04:30:57;;;;;;;;;;;;;;;7.91;100.00;99575.09;5059794;28;19931;-89
2022/11/23 04:33:22;;;;;;;;;;;;;;;7.90;100.00;99570.00;5042751;28;20130;-90
2022/11/23 04:35:48;;;;;;;;;;;;;;;7.90;100.00;99572.59;5042810;28;19912;-89
2022/11/23 04:38:13;;;;;;;;;;;;;;;7.90;100.00;99568.22;5058934;28;19912;-89
2022/11/23 04:40:38;;;;;;;;;;;;;;;7.91;100.00;99569.06;5059442;28;19919;-89
2022/11/23 04:43:03;;;;;;;;;;;;;;;7.90;100.00;99572.59;5042233;28;19950;-90
2022/11/23 04:45:29;;;;;;;;;;;;;;;7.87;100.00;99563.97;5077476;28;19936;-89
2022/11/23 04:47:54;;;;;;;;;;;;;;;7.87;100.00;99565.75;5059225;28;19942;-89
2022/11/23 04:50:19;;;;;;;;;;;;;;;7.88;100.00;99563.06;5076126;28;19928;-89
2022/11/23 04:52:45;;;;;;;;;;;;;;;7.88;100.00;99565.69;5074277;28;19956;-89
2022/11/23 04:55:12;;;;;;;;;;;;;;;7.87;100.00;99571.81;5057492;28;19919;-89
2022/11/23 04:57:37;;;;;;;;;;;;;;;7.88;100.00;99565.69;5057311;28;19921;-89
2022/11/23 05:00:03;;;;;;;;;;;;;;;7.88;100.00;99565.69;5056076;28;19920;-89
2022/11/23 05:02:28;;;;;;;;;;;;;;;7.90;100.00;99575.22;5073046;28;19920;-89
2022/11/23 05:04:53;;;;;;;;;;;;;;;7.87;100.00;99579.63;5058895;28;19920;-89
2022/11/23 05:07:19;;;;;;;;;;;;;;;7.86;100.00;99583.16;5070552;28;19932;-89
2022/11/23 05:09:44;;;;;;;;;;;;;;;7.83;100.00;99592.91;5076971;28;20155;-90
2022/11/23 05:12:09;;;;;;;;;;;;;;;7.82;100.00;99586.84;5076599;28;19996;-89
2022/11/23 05:14:34;;;;;;;;;;;;;;;7.82;100.00;99592.06;5076701;28;19988;-90
2022/11/23 05:17:00;;;;;;;;;;;;;;;7.82;100.00;99586.84;5076663;28;19912;-90
2022/11/23 05:19:25;;;;;;;;;;;;;;;7.84;100.00;99585.00;5058765;28;19920;-89
2022/11/23 05:21:50;;;;;;;;;;;;;;;7.84;100.00;99582.41;5074835;28;19935;-90
2022/11/23 05:24:15;;;;;;;;;;;;;;;7.85;100.00;99578.84;5039171;28;20145;-89
2022/11/23 05:26:41;;;;;;;;;;;;;;;7.85;100.00;99583.25;5043981;28;19978;-90
2022/11/23 05:29:06;;;;;;;;;;;;;;;7.86;100.00;99584.94;5075103;28;19962;-90
2022/11/23 05:31:31;;;;;;;;;;;;;;;7.88;100.00;99583.94;5034988;28;19917;-89
2022/11/23 05:33:56;;;;;;;;;;;;;;;7.88;100.00;99583.94;5058550;28;19986;-89
2022/11/23 05:36:22;;;;;;;;;;;;;;;7.90;100.00;99585.63;5053659;28;20186;-89
2022/11/23 05:38:47;;;;;;;;;;;;;;;7.89;100.00;99576.94;5067976;28;20167;-89
2022/11/23 05:41:12;;;;;;;;;;;;;;;7.90;100.00;99583.03;5056488;28;19999;-89
2022/11/23 05:43:38;;;;;;;;;;;;;;;7.90;100.00;99581.25;5061233;28;19912;-89
2022/11/23 05:46:03;;;;;;;;;;;;;;;7.89;100.00;99589.97;5057396;28;19913;-89
2022/11/23 05:48:28;;;;;;;;;;;;;;;7.90;100.00;99596.91;5070764;28;19920;-89
2022/11/23 05:50:54;;;;;;;;;;;;;;;7.88;100.00;99591.75;5076723;28;19916;-89
2022/11/23 05:53:19;;;;;;;;;;;;;;;7.90;100.00;99588.25;5075353;28;19928;-89
2022/11/23 05:55:45;;;;;;;;;;;;;;;7.89;100.00;99582.16;5075111;28;20115;-89
2022/11/23 05:58:10;;;;;;;;;;;;;;;7.90;100.00;99580.41;5032405;28;19916;-89
2022/11/23 06:00:35;;;;;;;;;;;;;;;7.91;100.00;99582.09;5056305;28;20219;-89
2022/11/23 06:03:01;;;;;;;;;;;;;;;7.91;100.00;99582.09;5063050;28;20193;-89
2022/11/23 06:05:27;;;;;;;;;;;;;;;7.91;100.00;99584.69;5057717;28;19999;-90
2022/11/23 06:07:52;;;;;;;;;;;;;;;7.91;100.00;99574.25;5064522;28;19912;-89
2022/11/23 06:10:18;;;;;;;;;;;;;;;7.90;100.00;99570.81;5077226;28;20229;-89
2022/11/23 06:12:44;;;;;;;;;;;;;;;7.90;100.00;99575.22;5078152;28;20286;-89
2022/11/23 06:15:10;;;;;;;;;;;;;;;7.90;100.00;99576.03;5077275;28;19920;-89
2022/11/23 06:17:35;;;;;;;;;;;;;;;7.90;100.00;99577.81;5067057;28;19980;-90
2022/11/23 06:20:00;;;;;;;;;;;;;;;7.89;100.00;99569.13;5075680;28;20004;-89
2022/11/23 06:22:26;;;;;;;;;;;;;;;7.88;100.00;99568.28;5061047;28;20205;-89
2022/11/23 06:24:54;;;;;;;;;;;;;;;7.87;100.00;99574.41;5076050;28;20242;-89
2022/11/23 06:27:19;;;;;;;;;;;;;;;7.87;100.00;99577.00;5078076;28;19921;-90
2022/11/23 06:29:45;;;;;;;;;;;;;;;7.86;100.00;99574.50;5066033;28;19983;-89
2022/11/23 06:32:11;;;;;;;;;;;;;;;7.86;100.00;99574.50;5077639;28;20305;-90
2022/11/23 06:34:36;;;;;;;;;;;;;;;7.86;100.00;99582.34;5067354;28;19917;-90
2022/11/23 06:37:01;;;;;;;;;;;;;;;7.86;100.00;99579.72;5039108;28;19932;-90
2022/11/23 06:39:29;;;;;;;;;;;;;;;7.85;100.00;99578.03;5065203;28;19920;-89
2022/11/23 06:41:55;;;;;;;;;;;;;;;7.84;100.00;99574.59;5058057;28;20184;-89
2022/11/23 06:44:20;;;;;;;;;;;;;;;7.84;100.00;99573.72;5070671;28;20027;-90
2022/11/23 06:46:45;;;;;;;;;;;;;;;7.84;100.00;99578.94;5049566;28;19970;-90
2022/11/23 06:49:10;;;;;;;;;;;;;;;7.82;100.00;99576.44;5058175;28;19944;-90
2022/11/23 06:51:35;;;;;;;;;;;;;;;7.81;100.00;99585.16;5076900;28;19928;-90
2022/11/23 06:54:01;;;;;;;;;;;;;;;7.81;100.00;99584.31;5073396;28;19924;-90
2022/11/23 06:56:26;;;;;;;;;;;;;;;7.81;100.00;99592.97;5075328;28;20209;-90
2022/11/23 06:58:54;;;;;;;;;;;;;;;7.79;100.00;99587.00;5078574;28;19966;-89
2022/11/23 07:01:22;;;;;;;;;;;;;;;7.79;100.00;99586.16;5046756;28;19955;-89
2022/11/23 07:03:47;;;;;;;;;;;;;;;7.78;100.00;99593.09;5058239;28;19993;-90
2022/11/23 07:06:12;;;;;;;;;;;;;;;7.78;100.00;99606.16;5077054;28;20208;-89
2022/11/23 07:08:42;;;;;;;;;;;;;;;7.77;100.00;99612.28;5056063;28;20153;-90
2022/11/23 07:11:08;;;;;;;;;;;;;;;7.77;100.00;99608.84;5081649;28;19961;-89
2022/11/23 07:13:33;;;;;;;;;;;;;;;7.77;100.00;99620.13;5072744;28;20035;-89
2022/11/23 07:15:58;;;;;;;;;;;;;;;7.75;100.00;99616.75;5056883;28;19929;-89
2022/11/23 07:18:24;;;;;;;;;;;;;;;7.75;100.00;99621.09;5066223;28;19967;-89
2022/11/23 07:20:49;;;;;;;;;;;;;;;7.75;100.00;99618.47;5078546;28;19927;-90
2022/11/23 07:23:15;;;;;;;;;;;;;;;7.74;100.00;99619.41;5076288;28;19913;-90
2022/11/23 07:25:40;;;;;;;;;;;;;;;7.75;100.00;99615.88;5048362;28;19983;-89
2022/11/23 07:28:06;;;;;;;;;;;;;;;7.73;100.00;99621.19;5063994;28;19931;-90
2022/11/23 07:30:32;;;;;;;;;;;;;;;7.73;100.00;99631.63;5071912;28;19963;-90
2022/11/23 07:33:01;;;;;;;;;;;;;;;7.73;100.00;99625.53;5057687;28;20011;-90
2022/11/23 07:35:26;;;;;;;;;;;;;;;7.72;100.00;99632.50;5060592;28;20254;-90
2022/11/23 07:38:02;;;;;;;;;;;;;;;7.73;100.00;99643.78;5074893;28;20813;-90
2022/11/23 07:40:27;;;;;;;;;;;;;;;7.73;100.00;99638.56;5067111;28;19921;-89
2022/11/23 07:43:00;;;;;;;;;;;;;;;7.72;100.00;99640.34;5078254;28;19916;-89
2022/11/23 07:45:25;;;;;;;;;;;;;;;7.71;100.00;99637.78;5051455;28;20217;-89
2022/11/23 07:47:58;;;;;;;;;;;;;;;7.71;100.00;99643.84;5068672;28;19929;-89
2022/11/23 07:50:23;;;;;;;;;;;;;;;7.70;100.00;99644.78;5068119;28;19936;-90
2022/11/23 07:52:48;;;;;;;;;;;;;;;7.68;100.00;99649.22;5061802;28;19963;-90
2022/11/23 07:55:14;;;;;;;;;;;;;;;7.70;100.00;99650.00;5064338;28;19916;-89
2022/11/23 07:57:39;;;;;;;;;;;;;;;7.71;100.00;99654.28;5070457;28;19916;-89
2022/11/23 08:00:07;;;;;;;;;;;;;;;7.71;100.00;99659.47;5049928;28;20205;-90
2022/11/23 08:02:32;;;;;;;;;;;;;;;7.71;100.00;99661.25;5070221;28;19924;-90
2022/11/23 08:04:57;;;;;;;;;;;;;;;7.73;100.00;99659.41;5068903;28;19920;-89
2022/11/23 08:07:23;;;;;;;;;;;;;;;7.72;100.00;99660.34;5067170;28;19999;-89
2022/11/23 08:09:49;;;;;;;;;;;;;;;7.72;100.00;99661.19;5075575;28;20208;-89
2022/11/23 08:12:14;;;;;;;;;;;;;;;7.72;100.00;99657.75;5067133;28;20109;-89
2022/11/23 08:14:39;;;;;;;;;;;;;;;7.73;100.00;99668.09;5074374;28;19948;-89
2022/11/23 08:17:04;;;;;;;;;;;;;;;7.72;100.00;99668.16;5064876;28;19916;-89
2022/11/23 08:19:30;;;;;;;;;;;;;;;7.73;100.00;99664.63;5043405;28;20159;-89
2022/11/23 08:21:55;;;;;;;;;;;;;;;7.72;100.00;99655.97;5057605;28;19947;-89
2022/11/23 08:24:21;;;;;;;;;;;;;;;7.73;100.00;99660.28;5062077;28;19916;-90
2022/11/23 08:26:46;;;;;;;;;;;;;;;7.74;100.00;99661.94;5073434;28;19930;-89
2022/11/23 08:29:12;;;;;;;;;;;;;;;7.74;100.00;99668.94;5072995;28;19982;-90
2022/11/23 08:31:37;;;;;;;;;;;;;;;7.74;100.00;99672.38;5058612;28;19971;-89
2022/11/23 08:34:03;;;;;;;;;;;;;;;7.75;100.00;99668.00;5040471;28;19924;-90
2022/11/23 08:36:28;;;;;;;;;;;;;;;7.76;100.00;99664.50;5052535;28;20244;-89
2022/11/23 08:39:01;;;;;;;;;;;;;;;7.75;100.00;99661.03;5046821;28;19923;-89
2022/11/23 08:41:26;;;;;;;;;;;;;;;7.75;100.00;99653.22;5058018;28;19928;-89
2022/11/23 08:43:51;;;;;;;;;;;;;;;7.76;100.00;99659.28;5061459;28;20200;-89
2022/11/23 08:46:17;;;;;;;;;;;;;;;7.77;100.00;99658.38;5055065;28;20143;-89
2022/11/23 08:48:42;;;;;;;;;;;;;;;7.77;100.00;99656.59;5073928;28;19951;-89
2022/11/23 08:51:08;;;;;;;;;;;;;;;7.77;100.00;99659.22;5075289;28;19920;-90
2022/11/23 08:53:33;;;;;;;;;;;;;;;7.77;100.00;99664.41;5071973;28;20706;-89
2022/11/23 08:56:03;;;;;;;;;;;;;;;7.78;100.00;99649.63;5063070;28;19976;-89
2022/11/23 08:58:29;;;;;;;;;;;;;;;7.77;100.00;99648.78;5056377;28;20117;-89
2022/11/23 09:00:54;;;;;;;;;;;;;;;7.77;100.00;99643.56;5054688;28;20182;-89
2022/11/23 09:03:19;;;;;;;;;;;;;;;7.78;100.00;99632.22;5055031;28;19923;-89
2022/11/23 09:05:44;;;;;;;;;;;;;;;7.77;100.00;99630.53;5056828;28;20792;-89
2022/11/23 09:08:10;;;;;;;;;;;;;;;7.78;100.00;99632.22;5051190;28;19920;-89
2022/11/23 09:10:35;;;;;;;;;;;;;;;7.78;100.00;99624.38;5073931;28;19943;-89
2022/11/23 09:13:00;;;;;;;;;;;;;;;7.79;100.00;99614.81;5074448;28;20189;-89
2022/11/23 09:15:26;;;;;;;;;;;;;;;7.79;100.00;99613.06;5074497;28;20164;-89
2022/11/23 09:17:51;;;;;;;;;;;;;;;7.80;100.00;99600.84;5075006;28;19943;-89
2022/11/23 09:20:16;;;;;;;;;;;;;;;7.79;100.00;99586.16;5039773;28;20066;-89
2022/11/23 09:22:42;;;;;;;;;;;;;;;7.81;100.00;99579.09;5054488;28;19920;-89
2022/11/23 09:25:09;;;;;;;;;;;;;;;7.80;100.00;99574.78;5051002;28;19921;-89
2022/11/23 09:27:34;;;;;;;;;;;;;;;7.79;100.00;99573.97;5062854;28;19952;-89
2022/11/23 09:29:59;;;;;;;;;;;;;;;7.78;100.00;99564.44;5076028;28;19921;-89
2022/11/23 09:32:25;;;;;;;;;;;;;;;7.79;100.00;99558.31;5060544;28;19925;-89
2022/11/23 09:34:50;;;;;;;;;;;;;;;7.80;100.00;99564.38;5039421;28;19924;-89
2022/11/23 09:37:16;;;;;;;;;;;;;;;7.79;100.00;99567.91;5050714;28;19925;-89
2022/11/23 09:39:42;;;;;;;;;;;;;;;7.80;100.00;99567.81;5054065;28;19931;-89
2022/11/23 09:42:13;;;;;;;;;;;;;;;7.80;100.00;99570.41;5063172;28;19916;-89
2022/11/23 09:44:51;;;;;;;;;;;;;;;7.79;100.00;99571.34;5058728;28;19991;-89
2022/11/23 09:47:35;;;;;;;;;;;;;;;7.79;100.00;99581.78;5058655;28;19920;-89
2022/11/23 09:50:06;;;;;;;;;;;;;;;7.80;100.00;99577.41;5082306;28;19971;-89
2022/11/23 09:52:34;;;;;;;;;;;;;;;7.80;100.00;99593.88;5080647;28;19981;-89
2022/11/23 09:55:02;;;;;;;;;;;;;;;7.81;100.00;99594.75;5083298;28;20230;-89
2022/11/23 09:57:29;;;;;;;;;;;;;;;7.81;100.00;99589.53;5063240;28;19912;-89
2022/11/23 10:00:03;;;;;;;;;;;;;;;7.81;100.00;99586.94;5064481;28;20108;-89
2022/11/23 10:02:30;;;;;;;;;;;;;;;7.81;100.00;99592.13;5072175;28;20144;-90
2022/11/23 10:04:58;;;;;;;;;;;;;;;7.80;100.00;99600.84;5084669;28;20235;-90
2022/11/23 10:07:31;;;;;;;;;;;;;;;7.79;100.00;99607.84;5077241;28;20296;-89
2022/11/23 10:10:17;;;;;;;;;;;;;;;7.78;100.00;99621.78;5074515;28;19924;-90
2022/11/23 10:12:45;;;;;;;;;;;;;;;7.77;100.00;99617.50;5077940;28;20192;-90
2022/11/23 10:15:13;;;;;;;;;;;;;;;7.78;100.00;99602.69;5077966;28;19999;-89
2022/11/23 10:17:56;;;;;;;;;;;;;;;7.78;100.00;99608.75;5078346;28;19978;-89
2022/11/23 10:20:42;;;;;;;;;;;;;;;7.79;100.00;99593.97;5075292;28;19928;-89
2022/11/23 10:23:16;;;;;;;;;;;;;;;7.77;100.00;99607.06;5071800;28;19943;-90
2022/11/23 10:25:47;;;;;;;;;;;;;;;7.77;100.00;99595.81;5050657;28;20180;-90
2022/11/23 10:28:14;;;;;;;;;;;;;;;7.76;100.00;99610.59;5058424;28;20182;-89
2022/11/23 10:30:39;;;;;;;;;;;;;;;7.76;100.00;99610.59;5056943;28;20239;-89
2022/11/23 10:33:21;;;;;;;;;;;;;;;7.75;100.00;99598.50;5064920;28;19920;-89
2022/11/23 10:35:47;;;;;;;;;;;;;;;7.75;100.00;99601.09;5062195;28;19955;-89
2022/11/23 10:38:20;;;;;;;;;;;;;;;7.76;100.00;99604.53;5070854;28;20007;-89
2022/11/23 10:40:56;;;;;;;;;;;;;;;7.76;100.00;99596.72;5038696;28;19956;-89
2022/11/23 10:43:23;;;;;;;;;;;;;;;7.76;100.00;99587.13;5064583;28;19924;-89
2022/11/23 10:45:48;;;;;;;;;;;;;;;7.76;100.00;99587.13;5069121;28;20089;-89
2022/11/23 10:48:34;;;;;;;;;;;;;;;7.75;100.00;99584.59;5041605;28;20201;-88
2022/11/23 10:51:19;;;;;;;;;;;;;;;7.75;100.00;99571.56;5071540;28;19924;-89
2022/11/23 10:53:52;;;;;;;;;;;;;;;7.75;100.00;99575.03;5074614;28;20098;-88
2022/11/23 10:56:18;;;;;;;;;;;;;;;7.76;100.00;99571.50;5074800;28;19927;-89
2022/11/23 10:58:44;;;;;;;;;;;;;;;7.76;100.00;99555.84;5063561;28;20208;-89
2022/11/23 11:01:19;;;;;;;;;;;;;;;7.76;100.00;99542.81;5074633;28;19924;-89
2022/11/23 11:03:44;;;;;;;;;;;;;;;7.77;100.00;99543.69;5052527;28;20159;-89
2022/11/23 11:06:09;;;;;;;;;;;;;;;7.76;100.00;99536.78;5074356;28;19925;-89
2022/11/23 11:08:52;;;;;;;;;;;;;;;7.78;100.00;99524.50;5064287;28;20222;-89
2022/11/23 11:11:25;;;;;;;;;;;;;;;7.76;100.00;99516.78;5071476;28;20247;-89
2022/11/23 11:13:59;;;;;;;;;;;;;;;7.78;100.00;99520.13;5075214;28;19927;-89
2022/11/23 11:16:32;;;;;;;;;;;;;;;7.78;100.00;99516.69;5059035;28;20095;-88
2022/11/23 11:18:58;;;;;;;;;;;;;;;7.78;100.00;99511.47;5082422;28;19959;-89
2022/11/23 11:21:32;;;;;;;;;;;;;;;7.78;100.00;99520.13;5053159;28;19982;-89
2022/11/23 11:24:01;;;;;;;;;;;;;;;7.79;100.00;99502.75;5063593;28;20149;-89
2022/11/23 11:26:27;;;;;;;;;;;;;;;7.79;100.00;99507.97;5058387;28;20424;-89
2022/11/23 11:28:59;;;;;;;;;;;;;;;7.79;100.00;99503.59;5057942;28;19928;-89
2022/11/23 11:31:29;;;;;;;;;;;;;;;7.78;100.00;99498.44;5060080;28;19920;-89
2022/11/23 11:33:57;;;;;;;;;;;;;;;7.76;100.00;99493.31;5076200;28;20124;-89
2022/11/23 11:36:24;;;;;;;;;;;;;;;7.77;100.00;99494.19;5075173;28;20263;-89
2022/11/23 11:38:52;;;;;;;;;;;;;;;7.79;100.00;99494.94;5073749;28;19922;-89
2022/11/23 11:41:23;;;;;;;;;;;;;;;7.78;100.00;99491.47;5073609;28;19912;-89
2022/11/23 11:43:52;;;;;;;;;;;;;;;7.80;100.00;99491.41;5038291;28;19944;-89
2022/11/23 11:46:30;;;;;;;;;;;;;;;7.80;100.00;99479.19;5057041;28;20260;-89
2022/11/23 11:49:08;;;;;;;;;;;;;;;7.80;100.00;99484.41;5072944;28;19930;-89
2022/11/23 11:51:36;;;;;;;;;;;;;;;7.81;100.00;99483.50;5043186;28;21238;-89
2022/11/23 11:54:04;;;;;;;;;;;;;;;7.83;100.00;99479.06;5074427;28;19927;-89
2022/11/23 11:56:33;;;;;;;;;;;;;;;7.84;100.00;99485.09;5075431;28;19908;-89
2022/11/23 11:59:08;;;;;;;;;;;;;;;7.83;100.00;99473.84;5072654;28;19912;-89
2022/11/23 12:01:42;;;;;;;;;;;;;;;7.84;100.00;99462.50;5056045;28;19920;-89
2022/11/23 12:04:13;;;;;;;;;;;;;;;7.83;100.00;99460.81;5056488;28;20119;-89
2022/11/23 12:06:42;;;;;;;;;;;;;;;7.82;100.00;99460.88;5082427;28;19916;-89
2022/11/23 12:09:19;;;;;;;;;;;;;;;7.82;100.00;99453.94;5071820;28;19983;-89
2022/11/23 12:11:44;;;;;;;;;;;;;;;7.84;100.00;99448.59;5073975;28;19921;-89
2022/11/23 12:14:12;;;;;;;;;;;;;;;7.85;100.00;99445.09;5060357;28;20265;-89
2022/11/23 12:16:44;;;;;;;;;;;;;;;7.85;100.00;99445.09;5056614;28;20226;-89
2022/11/23 12:19:09;;;;;;;;;;;;;;;7.84;100.00;99451.22;5071623;28;19940;-89
2022/11/23 12:21:35;;;;;;;;;;;;;;;7.85;100.00;99442.47;5065804;28;19923;-89
2022/11/23 12:24:19;;;;;;;;;;;;;;;7.85;100.00;99443.31;5056557;28;19952;-89
2022/11/23 12:27:05;;;;;;;;;;;;;;;7.86;100.00;99431.16;5056728;28;20177;-89
2022/11/23 12:29:34;;;;;;;;;;;;;;;7.88;100.00;99435.34;5055542;28;19913;-89
2022/11/23 12:32:07;;;;;;;;;;;;;;;7.87;100.00;99435.41;5072057;28;20273;-88
2022/11/23 12:34:46;;;;;;;;;;;;;;;7.89;100.00;99428.38;5069530;28;20184;-89
2022/11/23 12:37:15;;;;;;;;;;;;;;;7.90;100.00;99434.44;5061139;28;20223;-89
2022/11/23 12:39:53;;;;;;;;;;;;;;;7.91;100.00;99441.31;5064322;28;20121;-89
2022/11/23 12:42:37;;;;;;;;;;;;;;;7.92;100.00;99453.44;5081672;28;19916;-89
2022/11/23 12:45:08;;;;;;;;;;;;;;;7.93;100.00;99442.06;5049650;28;19986;-89
2022/11/23 12:47:40;;;;;;;;;;;;;;;7.94;100.00;99444.63;5054812;28;20151;-88